Time;durP1;ratioP1;P1;durP2;ratioP2;P2;SDS_P1;SDS_P2;PMS_P1;PMS_P2;Temp;Humidity;BMP_temperature;BMP_pressure;BME280_temperature;BME280_humidity;BME280_pressure;Samples;Min_cycle;Max_cycle;Signal;HPM_P1;HPM_P2
2023/04/15 00:01:27;;;;;;;7.88;3.72;;;;;;;;;;5077564;28;20358;-77
2023/04/15 00:03:53;;;;;;;5.75;3.30;;;;;;;;;;5071753;28;20048;-75
2023/04/15 00:06:19;;;;;;;6.43;2.70;;;;;;;;;;5068528;28;20024;-75
2023/04/15 00:08:45;;;;;;;7.13;3.78;;;;;;;;;;5071422;28;20713;-75
2023/04/15 00:11:11;;;;;;;9.02;5.35;;;;;;;;;;5081131;28;20062;-75
2023/04/15 00:13:37;;;;;;;7.70;3.80;;;;;;;;;;5072565;28;20049;-75
2023/04/15 00:16:03;;;;;;;15.35;7.93;;;;;;;;;;5079112;28;20020;-75
2023/04/15 00:18:28;;;;;;;12.98;6.90;;;;;;;;;;5080956;28;20035;-76
2023/04/15 00:20:54;;;;;;;18.77;12.25;;;;;;;;;;5080634;28;20038;-75
2023/04/15 00:23:19;;;;;;;16.50;8.18;;;;;;;;;;5071137;28;20069;-75
2023/04/15 00:25:45;;;;;;;15.80;9.50;;;;;;;;;;5080110;28;20023;-75
2023/04/15 00:28:11;;;;;;;11.52;7.38;;;;;;;;;;5068117;28;20024;-75
2023/04/15 00:30:36;;;;;;;11.75;6.63;;;;;;;;;;5079496;28;20020;-75
2023/04/15 00:33:02;;;;;;;14.30;8.70;;;;;;;;;;5080743;28;20042;-78
2023/04/15 00:35:28;;;;;;;11.75;6.63;;;;;;;;;;5072992;28;20024;-75
2023/04/15 00:37:53;;;;;;;9.20;5.28;;;;;;;;;;5059175;28;20030;-75
2023/04/15 00:40:20;;;;;;;9.38;5.53;;;;;;;;;;5061617;28;20063;-76
2023/04/15 00:42:45;;;;;;;14.63;8.68;;;;;;;;;;5070729;28;20020;-75
2023/04/15 00:45:11;;;;;;;12.85;6.97;;;;;;;;;;5079028;28;20465;-75
2023/04/15 00:47:38;;;;;;;13.93;9.02;;;;;;;;;;5077286;28;20056;-72
2023/04/15 00:50:03;;;;;;;13.40;7.35;;;;;;;;;;5072975;28;20111;-73
2023/04/15 00:52:29;;;;;;;9.65;6.20;;;;;;;;;;5079625;28;20102;-74
2023/04/15 00:54:54;;;;;;;9.55;6.28;;;;;;;;;;5069395;28;20020;-74
2023/04/15 00:57:20;;;;;;;9.80;5.75;;;;;;;;;;5076451;28;20363;-74
2023/04/15 00:59:46;;;;;;;13.52;7.47;;;;;;;;;;5070979;28;20032;-73
2023/04/15 01:02:11;;;;;;;9.27;5.90;;;;;;;;;;5070651;28;20050;-76
2023/04/15 01:04:37;;;;;;;12.60;7.82;;;;;;;;;;5073323;28;20016;-72
2023/04/15 01:07:02;;;;;;;11.95;9.38;;;;;;;;;;5071911;28;20089;-73
2023/04/15 01:09:28;;;;;;;17.70;12.05;;;;;;;;;;5080804;28;20095;-76
2023/04/15 01:11:53;;;;;;;25.45;19.08;;;;;;;;;;5083189;28;20662;-74
2023/04/15 01:14:18;;;;;;;8.25;5.35;;;;;;;;;;5083075;28;20032;-73
2023/04/15 01:16:44;;;;;;;42.15;29.90;;;;;;;;;;5079246;28;20019;-74
2023/04/15 01:19:10;;;;;;;35.47;22.25;;;;;;;;;;5076971;28;20054;-73
2023/04/15 01:21:36;;;;;;;3.92;2.70;;;;;;;;;;5083028;28;20020;-73
2023/04/15 01:24:04;;;;;;;2.88;1.20;;;;;;;;;;5083000;28;20498;-75
2023/04/15 01:26:29;;;;;;;2.45;0.95;;;;;;;;;;5082953;28;20125;-73
2023/04/15 01:28:55;;;;;;;4.70;2.80;;;;;;;;;;5082577;28;20528;-74
2023/04/15 01:31:20;;;;;;;3.70;2.50;;;;;;;;;;5065439;28;20093;-74
2023/04/15 01:33:46;;;;;;;1.98;1.23;;;;;;;;;;5074998;28;20020;-76
2023/04/15 01:36:11;;;;;;;3.15;1.70;;;;;;;;;;5071293;28;20024;-74
2023/04/15 01:38:37;;;;;;;1.63;1.27;;;;;;;;;;5075975;28;20536;-77
2023/04/15 01:41:06;;;;;;;1.08;0.63;;;;;;;;;;5079225;28;20729;-74
2023/04/15 01:43:32;;;;;;;4.18;1.58;;;;;;;;;;5077592;28;20030;-76
2023/04/15 01:45:57;;;;;;;2.25;1.02;;;;;;;;;;5057845;28;20036;-74
2023/04/15 01:48:23;;;;;;;1.75;1.17;;;;;;;;;;5093386;28;20043;-75
2023/04/15 01:50:48;;;;;;;2.55;0.77;;;;;;;;;;5102380;28;20438;-73
2023/04/15 01:53:14;;;;;;;1.98;0.98;;;;;;;;;;5092751;28;20373;-75
2023/04/15 01:55:40;;;;;;;1.80;1.10;;;;;;;;;;5103303;28;20122;-74
2023/04/15 01:58:06;;;;;;;2.33;1.00;;;;;;;;;;5102588;28;20469;-74
2023/04/15 02:00:31;;;;;;;2.08;1.27;;;;;;;;;;5103543;28;20610;-74
2023/04/15 02:02:58;;;;;;;1.50;0.88;;;;;;;;;;5102735;28;20032;-76
2023/04/15 02:05:24;;;;;;;3.63;1.10;;;;;;;;;;5092379;28;20359;-75
2023/04/15 02:07:49;;;;;;;1.38;0.80;;;;;;;;;;5103320;28;20034;-76
2023/04/15 02:10:15;;;;;;;2.45;0.95;;;;;;;;;;5102774;28;20011;-74
2023/04/15 02:12:41;;;;;;;1.85;0.80;;;;;;;;;;5102543;28;20019;-74
2023/04/15 02:15:06;;;;;;;2.50;0.60;;;;;;;;;;5102711;28;21215;-76
2023/04/15 02:17:35;;;;;;;1.10;0.80;;;;;;;;;;5101150;28;20062;-76
2023/04/15 02:20:01;;;;;;;4.28;1.25;;;;;;;;;;5102384;28;20024;-75
2023/04/15 02:22:26;;;;;;;0.80;0.60;;;;;;;;;;5103411;28;20027;-76
2023/04/15 02:24:52;;;;;;;3.05;0.90;;;;;;;;;;5091470;28;20020;-77
2023/04/15 02:27:17;;;;;;;1.02;0.70;;;;;;;;;;5103051;28;20035;-77
2023/04/15 02:29:46;;;;;;;1.05;0.60;;;;;;;;;;5101393;28;20028;-76
2023/04/15 02:32:11;;;;;;;1.77;0.73;;;;;;;;;;5093569;28;20111;-75
2023/04/15 02:34:40;;;;;;;1.77;1.40;;;;;;;;;;5090686;28;20098;-75
2023/04/15 02:37:05;;;;;;;4.72;2.30;;;;;;;;;;5101503;28;20438;-74
2023/04/15 02:39:31;;;;;;;7.72;4.15;;;;;;;;;;5102737;28;20027;-76
2023/04/15 02:41:58;;;;;;;1.98;1.00;;;;;;;;;;5098519;28;20334;-75
2023/04/15 02:44:24;;;;;;;2.58;1.10;;;;;;;;;;5096700;28;20118;-74
2023/04/15 02:46:51;;;;;;;1.95;1.13;;;;;;;;;;5089508;28;20148;-75
2023/04/15 02:49:17;;;;;;;2.15;1.40;;;;;;;;;;5080041;28;20104;-74
2023/04/15 02:51:42;;;;;;;2.65;1.73;;;;;;;;;;5081594;28;20414;-74
2023/04/15 02:54:07;;;;;;;2.58;1.30;;;;;;;;;;5081315;28;20028;-74
2023/04/15 02:56:33;;;;;;;3.08;1.60;;;;;;;;;;5081926;28;20131;-76
2023/04/15 02:58:58;;;;;;;3.38;1.20;;;;;;;;;;5080584;28;20115;-74
2023/04/15 03:01:24;;;;;;;2.80;1.65;;;;;;;;;;5081576;28;20062;-74
2023/04/15 03:03:50;;;;;;;2.70;1.83;;;;;;;;;;5081750;28;20036;-74
2023/04/15 03:06:15;;;;;;;2.83;2.47;;;;;;;;;;5081438;28;20451;-74
2023/04/15 03:08:41;;;;;;;3.47;3.00;;;;;;;;;;5080088;28;20111;-75
2023/04/15 03:11:07;;;;;;;3.83;2.90;;;;;;;;;;5081971;28;20042;-76
2023/04/15 03:13:32;;;;;;;3.58;2.15;;;;;;;;;;5075082;28;20027;-75
2023/04/15 03:15:57;;;;;;;1.63;1.50;;;;;;;;;;5056650;28;20028;-75
2023/04/15 03:18:23;;;;;;;3.28;1.10;;;;;;;;;;5081263;28;20463;-74
2023/04/15 03:20:48;;;;;;;2.20;0.80;;;;;;;;;;5080577;28;20024;-74
2023/04/15 03:23:14;;;;;;;1.00;0.60;;;;;;;;;;5079746;28;20107;-73
2023/04/15 03:25:39;;;;;;;0.73;0.70;;;;;;;;;;5080032;28;20127;-74
2023/04/15 03:28:05;;;;;;;1.13;0.90;;;;;;;;;;5062043;28;20057;-74
2023/04/15 03:30:30;;;;;;;3.40;1.33;;;;;;;;;;5080798;28;20028;-74
2023/04/15 03:32:56;;;;;;;3.80;1.38;;;;;;;;;;5080271;28;20035;-74
2023/04/15 03:35:21;;;;;;;3.17;1.60;;;;;;;;;;5081416;28;20061;-75
2023/04/15 03:37:48;;;;;;;3.30;2.25;;;;;;;;;;5070364;28;20028;-74
2023/04/15 03:40:13;;;;;;;5.75;2.75;;;;;;;;;;5081523;28;20021;-74
2023/04/15 03:42:38;;;;;;;6.40;3.42;;;;;;;;;;5081212;28;20031;-74
2023/04/15 03:45:04;;;;;;;6.88;3.30;;;;;;;;;;5081531;28;20016;-74
2023/04/15 03:47:29;;;;;;;5.25;3.17;;;;;;;;;;5080298;28;20051;-75
2023/04/15 03:49:55;;;;;;;6.43;4.55;;;;;;;;;;5081520;28;20023;-76
2023/04/15 03:52:20;;;;;;;14.10;8.00;;;;;;;;;;5081193;28;20024;-75
2023/04/15 03:54:46;;;;;;;14.13;8.05;;;;;;;;;;5080643;28;20027;-76
2023/04/15 03:57:11;;;;;;;10.70;7.28;;;;;;;;;;5081003;28;20122;-76
2023/04/15 03:59:37;;;;;;;12.57;6.13;;;;;;;;;;5062544;28;20028;-75
2023/04/15 04:02:02;;;;;;;8.55;5.28;;;;;;;;;;5062276;28;20027;-74
2023/04/15 04:04:27;;;;;;;7.05;6.20;;;;;;;;;;5080290;28;20026;-73
2023/04/15 04:06:53;;;;;;;4.88;2.30;;;;;;;;;;5079724;28;20436;-74
2023/04/15 04:09:18;;;;;;;3.88;2.38;;;;;;;;;;5079767;28;21208;-75
2023/04/15 04:11:44;;;;;;;3.22;2.13;;;;;;;;;;5079421;28;20020;-75
2023/04/15 04:14:09;;;;;;;7.82;3.88;;;;;;;;;;5081385;28;20028;-75
2023/04/15 04:16:35;;;;;;;7.68;4.20;;;;;;;;;;5062443;28;20079;-76
2023/04/15 04:19:00;;;;;;;3.88;2.15;;;;;;;;;;5080076;28;20107;-73
2023/04/15 04:21:25;;;;;;;4.85;2.40;;;;;;;;;;5079771;28;20343;-74
2023/04/15 04:23:51;;;;;;;5.28;2.60;;;;;;;;;;5061207;28;20016;-74
2023/04/15 04:26:16;;;;;;;6.10;3.78;;;;;;;;;;5080335;28;20046;-75
2023/04/15 04:28:42;;;;;;;8.07;5.03;;;;;;;;;;5079202;28;20062;-75
2023/04/15 04:31:07;;;;;;;7.47;4.30;;;;;;;;;;5079221;28;20027;-76
2023/04/15 04:33:32;;;;;;;7.35;4.78;;;;;;;;;;5080930;28;20020;-74
2023/04/15 04:35:58;;;;;;;5.55;3.67;;;;;;;;;;5078954;28;20342;-76
2023/04/15 04:38:23;;;;;;;9.48;4.43;;;;;;;;;;5069149;28;20404;-74
2023/04/15 04:40:48;;;;;;;5.00;3.20;;;;;;;;;;5080347;28;20023;-76
2023/04/15 04:43:14;;;;;;;11.45;4.80;;;;;;;;;;5079435;28;20556;-74
2023/04/15 04:45:40;;;;;;;5.40;3.95;;;;;;;;;;5080024;28;20031;-74
2023/04/15 04:48:07;;;;;;;5.57;2.28;;;;;;;;;;5079490;28;20056;-74
2023/04/15 04:50:33;;;;;;;4.80;1.63;;;;;;;;;;5080308;28;20458;-74
2023/04/15 04:52:58;;;;;;;4.40;1.60;;;;;;;;;;5078028;28;20028;-74
2023/04/15 04:55:23;;;;;;;3.97;1.85;;;;;;;;;;5080384;28;20028;-77
2023/04/15 04:57:49;;;;;;;4.90;1.95;;;;;;;;;;5079854;28;20202;-75
2023/04/15 05:00:14;;;;;;;4.20;1.90;;;;;;;;;;5067768;28;20128;-74
2023/04/15 05:02:42;;;;;;;3.53;1.30;;;;;;;;;;5067480;28;20028;-75
2023/04/15 05:05:08;;;;;;;3.95;1.70;;;;;;;;;;5065574;28;20432;-75
2023/04/15 05:07:33;;;;;;;3.95;1.50;;;;;;;;;;5066602;28;20035;-75
2023/04/15 05:09:59;;;;;;;5.03;2.72;;;;;;;;;;5071328;28;20020;-74
2023/04/15 05:12:24;;;;;;;4.40;2.83;;;;;;;;;;5066444;28;20032;-73
2023/04/15 05:14:50;;;;;;;8.27;5.05;;;;;;;;;;5066359;28;20142;-73
2023/04/15 05:17:15;;;;;;;4.70;2.80;;;;;;;;;;5066690;28;20035;-76
2023/04/15 05:19:40;;;;;;;4.45;2.60;;;;;;;;;;5074634;28;20054;-74
2023/04/15 05:22:06;;;;;;;3.80;2.30;;;;;;;;;;5074072;28;20060;-74
2023/04/15 05:24:32;;;;;;;6.40;2.90;;;;;;;;;;5078895;28;20085;-76
2023/04/15 05:26:57;;;;;;;3.55;1.77;;;;;;;;;;5070481;28;20028;-73
2023/04/15 05:29:22;;;;;;;3.83;1.52;;;;;;;;;;5072058;28;20039;-74
2023/04/15 05:31:47;;;;;;;4.55;1.83;;;;;;;;;;5072720;28;20028;-75
2023/04/15 05:34:15;;;;;;;7.03;2.30;;;;;;;;;;5079032;28;20039;-73
2023/04/15 05:36:40;;;;;;;2.97;1.60;;;;;;;;;;5071675;28;20115;-74
2023/04/15 05:39:06;;;;;;;3.45;2.00;;;;;;;;;;5074409;28;20161;-75
2023/04/15 05:41:31;;;;;;;2.97;1.50;;;;;;;;;;5079111;28;20043;-72
2023/04/15 05:43:56;;;;;;;3.35;1.95;;;;;;;;;;5079319;28;20019;-72
2023/04/15 05:46:22;;;;;;;10.13;5.80;;;;;;;;;;5078230;28;20021;-76
2023/04/15 05:48:47;;;;;;;11.77;7.18;;;;;;;;;;5069886;28;20052;-74
2023/04/15 05:51:12;;;;;;;10.02;6.22;;;;;;;;;;5077711;28;20024;-73
2023/04/15 05:53:39;;;;;;;11.00;6.18;;;;;;;;;;5077685;28;20035;-73
2023/04/15 05:56:04;;;;;;;6.88;3.72;;;;;;;;;;5080740;28;20406;-73
2023/04/15 05:58:30;;;;;;;10.63;5.53;;;;;;;;;;5083703;28;20065;-73
2023/04/15 06:00:55;;;;;;;10.60;5.97;;;;;;;;;;5081815;28;20028;-73
2023/04/15 06:03:21;;;;;;;17.60;10.23;;;;;;;;;;5076975;28;20020;-73
2023/04/15 06:05:47;;;;;;;13.32;8.55;;;;;;;;;;5076015;28;20052;-74
2023/04/15 06:08:12;;;;;;;13.43;8.38;;;;;;;;;;5080845;28;20408;-72
2023/04/15 06:10:38;;;;;;;22.75;11.35;;;;;;;;;;5082291;28;20032;-72
2023/04/15 06:13:03;;;;;;;19.95;10.02;;;;;;;;;;5080792;28;20032;-71
2023/04/15 06:15:29;;;;;;;8.93;4.40;;;;;;;;;;5079503;28;20027;-71
2023/04/15 06:17:54;;;;;;;6.07;3.80;;;;;;;;;;5082208;28;21155;-72
2023/04/15 06:20:20;;;;;;;19.00;11.65;;;;;;;;;;5082599;28;20048;-72
2023/04/15 06:22:45;;;;;;;13.10;7.63;;;;;;;;;;5070995;28;20066;-73
2023/04/15 06:25:11;;;;;;;6.60;3.10;;;;;;;;;;5081869;28;20028;-75
2023/04/15 06:27:36;;;;;;;6.13;3.05;;;;;;;;;;5070791;28;20489;-72
2023/04/15 06:30:02;;;;;;;14.63;7.45;;;;;;;;;;5081337;28;20443;-73
2023/04/15 06:32:27;;;;;;;15.00;6.78;;;;;;;;;;5080611;28;20028;-72
2023/04/15 06:34:52;;;;;;;15.57;8.63;;;;;;;;;;5078880;28;20502;-72
2023/04/15 06:37:18;;;;;;;7.65;3.60;;;;;;;;;;5073458;28;20389;-71
2023/04/15 06:39:43;;;;;;;10.98;6.80;;;;;;;;;;5080339;28;20023;-71
2023/04/15 06:42:09;;;;;;;11.55;7.20;;;;;;;;;;5081150;28;20084;-71
2023/04/15 06:44:35;;;;;;;10.35;5.93;;;;;;;;;;5080368;28;20077;-72
2023/04/15 06:47:01;;;;;;;11.10;6.20;;;;;;;;;;5079890;28;20048;-72
2023/04/15 06:49:26;;;;;;;9.27;4.30;;;;;;;;;;5069419;28;20392;-72
2023/04/15 06:51:52;;;;;;;10.73;6.45;;;;;;;;;;5067446;28;20528;-72
2023/04/15 06:54:17;;;;;;;15.82;7.50;;;;;;;;;;5068213;28;20020;-73
2023/04/15 06:56:43;;;;;;;8.98;6.47;;;;;;;;;;5068842;28;20032;-71
2023/04/15 06:59:09;;;;;;;9.07;5.32;;;;;;;;;;5069126;28;20028;-72
2023/04/15 07:01:34;;;;;;;7.78;4.38;;;;;;;;;;5069623;28;20015;-73
2023/04/15 07:04:00;;;;;;;8.50;4.82;;;;;;;;;;5069582;28;20101;-73
2023/04/15 07:06:26;;;;;;;3.10;2.20;;;;;;;;;;5076751;28;20439;-72
2023/04/15 07:08:51;;;;;;;16.17;3.30;;;;;;;;;;5080092;28;20427;-71
2023/04/15 07:11:17;;;;;;;4.55;2.78;;;;;;;;;;5080793;28;20470;-71
2023/04/15 07:13:42;;;;;;;7.45;2.70;;;;;;;;;;5080324;28;20723;-71
2023/04/15 07:16:08;;;;;;;10.32;5.90;;;;;;;;;;5056074;28;20146;-71
2023/04/15 07:18:33;;;;;;;34.08;30.67;;;;;;;;;;5076942;28;20036;-71
2023/04/15 07:20:58;;;;;;;11.98;8.77;;;;;;;;;;5071321;28;20031;-75
2023/04/15 07:23:24;;;;;;;9.13;5.10;;;;;;;;;;5071306;28;20077;-70
2023/04/15 07:25:50;;;;;;;6.35;3.10;;;;;;;;;;5074628;28;20155;-71
2023/04/15 07:28:15;;;;;;;7.03;2.50;;;;;;;;;;5080092;28;20138;-71
2023/04/15 07:30:41;;;;;;;5.50;2.90;;;;;;;;;;5079547;28;20112;-71
2023/04/15 07:33:06;;;;;;;6.85;3.33;;;;;;;;;;5079749;28;20146;-71
2023/04/15 07:35:32;;;;;;;9.95;5.78;;;;;;;;;;5079695;28;20038;-71
2023/04/15 07:37:57;;;;;;;8.07;6.05;;;;;;;;;;5078095;28;20202;-71
2023/04/15 07:40:23;;;;;;;6.35;4.38;;;;;;;;;;5071070;28;20419;-71
2023/04/15 07:42:48;;;;;;;4.38;3.55;;;;;;;;;;5076220;28;20027;-72
2023/04/15 07:45:14;;;;;;;4.03;2.90;;;;;;;;;;5078894;28;20020;-73
2023/04/15 07:47:40;;;;;;;2.83;1.60;;;;;;;;;;5078077;28;20051;-72
2023/04/15 07:50:06;;;;;;;4.18;1.90;;;;;;;;;;5079420;28;20094;-71
2023/04/15 07:52:34;;;;;;;2.85;2.10;;;;;;;;;;5079736;28;20091;-72
2023/04/15 07:54:59;;;;;;;4.47;3.72;;;;;;;;;;5079976;28;20073;-70
2023/04/15 07:57:24;;;;;;;2.38;2.17;;;;;;;;;;5080325;28;20454;-71
2023/04/15 07:59:50;;;;;;;2.53;1.52;;;;;;;;;;5079522;28;20063;-73
2023/04/15 08:02:15;;;;;;;5.53;3.08;;;;;;;;;;5079659;28;20020;-71
2023/04/15 08:04:41;;;;;;;3.10;1.55;;;;;;;;;;5079523;28;20032;-71
2023/04/15 08:07:06;;;;;;;4.72;3.88;;;;;;;;;;5076661;28;20170;-71
2023/04/15 08:09:31;;;;;;;6.13;5.60;;;;;;;;;;5070530;28;20024;-71
2023/04/15 08:11:57;;;;;;;7.88;5.10;;;;;;;;;;5075360;28;20099;-72
2023/04/15 08:14:23;;;;;;;5.07;3.22;;;;;;;;;;5073576;28;20028;-72
2023/04/15 08:16:48;;;;;;;10.30;6.75;;;;;;;;;;5068259;28;20070;-74
2023/04/15 08:19:14;;;;;;;14.50;10.18;;;;;;;;;;5067753;28;20063;-72
2023/04/15 08:21:39;;;;;;;3.60;2.20;;;;;;;;;;5051469;28;20036;-72
2023/04/15 08:24:05;;;;;;;7.32;2.30;;;;;;;;;;5065777;28;20027;-72
2023/04/15 08:26:31;;;;;;;7.80;2.72;;;;;;;;;;5076280;28;20107;-72
2023/04/15 08:28:56;;;;;;;3.00;1.42;;;;;;;;;;5077867;28;20066;-72
2023/04/15 08:31:22;;;;;;;3.30;2.30;;;;;;;;;;5077338;28;20016;-73
2023/04/15 08:33:47;;;;;;;7.82;3.92;;;;;;;;;;5078792;28;20012;-74
2023/04/15 08:36:13;;;;;;;10.00;5.88;;;;;;;;;;5078946;28;20618;-72
2023/04/15 08:38:39;;;;;;;5.95;3.10;;;;;;;;;;5077031;28;20139;-72
2023/04/15 08:41:13;;;;;;;6.70;5.25;;;;;;;;;;5078638;28;20023;-71
2023/04/15 08:43:45;;;;;;;7.32;5.10;;;;;;;;;;5078323;28;20047;-73
2023/04/15 08:46:11;;;;;;;9.10;4.40;;;;;;;;;;5079640;28;20446;-72
2023/04/15 08:48:37;;;;;;;12.93;7.88;;;;;;;;;;5079241;28;20135;-72
2023/04/15 08:51:03;;;;;;;4.22;3.15;;;;;;;;;;5079252;28;20120;-72
2023/04/15 08:53:29;;;;;;;7.30;4.28;;;;;;;;;;5080066;28;20495;-72
2023/04/15 08:55:56;;;;;;;4.55;2.38;;;;;;;;;;5080537;28;20032;-74
2023/04/15 08:58:21;;;;;;;4.35;3.70;;;;;;;;;;5079963;28;20038;-72
2023/04/15 09:00:47;;;;;;;5.70;3.15;;;;;;;;;;5079268;28;20107;-72
2023/04/15 09:03:13;;;;;;;2.83;1.92;;;;;;;;;;5076825;28;20450;-71
2023/04/15 09:05:38;;;;;;;4.88;2.60;;;;;;;;;;5079498;28;21070;-71
2023/04/15 09:08:04;;;;;;;4.00;2.08;;;;;;;;;;5078910;28;20031;-73
2023/04/15 09:10:30;;;;;;;4.22;3.03;;;;;;;;;;5079068;28;20059;-72
2023/04/15 09:12:56;;;;;;;7.80;4.20;;;;;;;;;;5079433;28;20443;-72
2023/04/15 09:15:23;;;;;;;6.57;4.75;;;;;;;;;;5079671;28;20028;-71
2023/04/15 09:17:48;;;;;;;4.15;2.22;;;;;;;;;;5078721;28;20028;-72
2023/04/15 09:20:15;;;;;;;5.18;2.58;;;;;;;;;;5079562;28;20077;-73
2023/04/15 09:22:41;;;;;;;6.13;4.50;;;;;;;;;;5079347;28;20439;-72
2023/04/15 09:25:27;;;;;;;4.55;3.15;;;;;;;;;;5079213;28;20111;-76
2023/04/15 09:27:53;;;;;;;7.50;3.30;;;;;;;;;;5077295;28;20078;-72
2023/04/15 09:30:19;;;;;;;17.60;8.55;;;;;;;;;;5080666;28;20119;-73
2023/04/15 09:32:57;;;;;;;7.45;5.75;;;;;;;;;;5082994;28;20460;-71
2023/04/15 09:35:23;;;;;;;7.22;3.05;;;;;;;;;;5082334;28;20036;-74
2023/04/15 09:37:49;;;;;;;7.15;5.05;;;;;;;;;;5083170;28;20039;-71
2023/04/15 09:40:29;;;;;;;4.55;1.95;;;;;;;;;;5082532;28;20443;-74
2023/04/15 09:42:55;;;;;;;7.47;2.85;;;;;;;;;;5083209;28;20354;-72
2023/04/15 09:45:21;;;;;;;5.05;1.98;;;;;;;;;;5082273;28;20028;-74
2023/04/15 09:47:46;;;;;;;3.58;2.25;;;;;;;;;;5083240;28;20637;-77
2023/04/15 09:50:13;;;;;;;3.30;2.03;;;;;;;;;;5082624;28;20111;-73
2023/04/15 09:52:42;;;;;;;6.70;3.38;;;;;;;;;;5082832;28;20024;-75
2023/04/15 09:55:08;;;;;;;5.95;4.70;;;;;;;;;;5082836;28;20777;-74
2023/04/15 09:57:37;;;;;;;5.32;1.60;;;;;;;;;;5082697;28;20054;-72
2023/04/15 10:00:03;;;;;;;5.47;2.40;;;;;;;;;;5081757;28;20028;-72
2023/04/15 10:02:29;;;;;;;6.90;3.67;;;;;;;;;;5082540;28;20073;-71
2023/04/15 10:04:55;;;;;;;6.82;4.35;;;;;;;;;;5082907;28;20097;-72
2023/04/15 10:07:21;;;;;;;9.50;5.43;;;;;;;;;;5082189;28;20740;-73
2023/04/15 10:09:50;;;;;;;3.50;1.70;;;;;;;;;;5083327;28;20044;-72
2023/04/15 10:12:18;;;;;;;4.83;1.83;;;;;;;;;;5081243;28;20032;-72
2023/04/15 10:14:43;;;;;;;4.78;2.85;;;;;;;;;;5081579;28;20028;-72
2023/04/15 10:17:10;;;;;;;10.80;5.03;;;;;;;;;;5080639;28;20016;-74
2023/04/15 10:19:36;;;;;;;8.55;4.38;;;;;;;;;;5067909;28;20028;-74
2023/04/15 10:22:02;;;;;;;6.18;3.92;;;;;;;;;;5075891;28;20020;-72
2023/04/15 10:24:27;;;;;;;19.27;17.20;;;;;;;;;;5083008;28;20092;-72
2023/04/15 10:26:54;;;;;;;7.38;5.40;;;;;;;;;;5081981;28;20028;-72
2023/04/15 10:29:19;;;;;;;13.75;7.55;;;;;;;;;;5081374;28;20123;-74
2023/04/15 10:31:45;;;;;;;7.88;5.68;;;;;;;;;;5081277;28;20111;-73
2023/04/15 10:34:11;;;;;;;9.43;3.25;;;;;;;;;;5077731;28;20871;-74
2023/04/15 10:36:36;;;;;;;6.72;4.25;;;;;;;;;;5075994;28;24217;-72
2023/04/15 10:39:02;;;;;;;9.70;6.97;;;;;;;;;;5069178;28;20032;-72
2023/04/15 10:41:33;;;;;;;5.43;4.40;;;;;;;;;;5076611;28;20020;-74
2023/04/15 10:43:58;;;;;;;3.25;2.78;;;;;;;;;;5080120;28;20107;-74
2023/04/15 10:46:24;;;;;;;6.65;3.40;;;;;;;;;;5081505;28;20106;-72
2023/04/15 10:48:51;;;;;;;4.68;2.97;;;;;;;;;;5080916;28;20075;-73
2023/04/15 10:51:25;;;;;;;2.85;1.73;;;;;;;;;;5081182;28;20086;-72
2023/04/15 10:53:54;;;;;;;4.70;3.00;;;;;;;;;;5072742;28;20032;-71
2023/04/15 10:56:20;;;;;;;7.60;3.67;;;;;;;;;;5074595;28;20020;-72
2023/04/15 10:58:45;;;;;;;7.55;3.72;;;;;;;;;;5080337;28;20355;-73
2023/04/15 11:01:12;;;;;;;4.28;2.55;;;;;;;;;;5079930;28;20032;-73
2023/04/15 11:03:38;;;;;;;7.78;2.72;;;;;;;;;;5080302;28;20039;-73
2023/04/15 11:06:05;;;;;;;3.13;2.42;;;;;;;;;;5080439;28;20028;-72
2023/04/15 11:08:50;;;;;;;7.53;2.70;;;;;;;;;;5080252;28;20032;-71
2023/04/15 11:11:16;;;;;;;6.55;3.38;;;;;;;;;;5059344;28;20044;-72
2023/04/15 11:13:48;;;;;;;2.92;1.70;;;;;;;;;;5068413;28;20466;-72
2023/04/15 11:16:14;;;;;;;7.63;2.45;;;;;;;;;;5079000;28;20374;-71
2023/04/15 11:18:39;;;;;;;3.80;1.40;;;;;;;;;;5080432;28;20458;-72
2023/04/15 11:21:05;;;;;;;7.75;2.90;;;;;;;;;;5071572;28;20491;-74
2023/04/15 11:23:38;;;;;;;5.03;1.88;;;;;;;;;;5077906;28;20028;-74
2023/04/15 11:26:08;;;;;;;5.10;2.47;;;;;;;;;;5049025;28;20378;-74
2023/04/15 11:28:33;;;;;;;;;;;;;;;;;;5069447;28;20435;-72
2023/04/15 11:31:04;;;;;;;3.20;2.40;;;;;;;;;;5071000;28;19915;-73
2023/04/15 11:33:30;;;;;;;5.80;2.00;;;;;;;;;;5080205;28;20062;-73
2023/04/15 11:35:55;;;;;;;5.88;3.35;;;;;;;;;;5077465;28;20017;-72
2023/04/15 11:38:21;;;;;;;3.08;2.70;;;;;;;;;;5067281;28;20081;-72
2023/04/15 11:40:47;;;;;;;2.28;1.70;;;;;;;;;;5068728;28;20059;-71
2023/04/15 11:43:13;;;;;;;6.72;4.40;;;;;;;;;;5066866;28;20028;-71
2023/04/15 11:45:47;;;;;;;4.78;2.15;;;;;;;;;;5068631;28;20059;-72
2023/04/15 11:48:13;;;;;;;4.75;1.85;;;;;;;;;;5074187;28;20056;-72
2023/04/15 11:50:41;;;;;;;4.72;2.40;;;;;;;;;;5068874;28;20339;-72
2023/04/15 11:53:08;;;;;;;10.23;5.88;;;;;;;;;;5064289;28;20020;-72
2023/04/15 11:55:41;;;;;;;8.95;4.70;;;;;;;;;;5080049;28;20031;-73
2023/04/15 11:58:09;;;;;;;6.78;3.58;;;;;;;;;;5078348;28;20066;-75
2023/04/15 12:00:35;;;;;;;5.88;4.53;;;;;;;;;;5075143;28;20420;-73
2023/04/15 12:03:17;;;;;;;9.35;3.90;;;;;;;;;;5066726;28;20028;-71
2023/04/15 12:06:01;;;;;;;5.43;1.98;;;;;;;;;;5063880;28;20016;-71
2023/04/15 12:08:47;;;;;;;3.85;1.70;;;;;;;;;;5076594;28;20036;-70
2023/04/15 12:11:12;;;;;;;9.40;6.15;;;;;;;;;;5069795;28;20537;-71
2023/04/15 12:13:37;;;;;;;4.53;2.72;;;;;;;;;;5078858;28;20028;-72
2023/04/15 12:16:03;;;;;;;6.40;4.05;;;;;;;;;;5077574;28;20450;-71
2023/04/15 12:18:28;;;;;;;4.75;3.83;;;;;;;;;;5071912;28;20359;-71
2023/04/15 12:20:54;;;;;;;2.78;1.75;;;;;;;;;;5058736;28;20031;-72
2023/04/15 12:23:19;;;;;;;8.55;4.07;;;;;;;;;;5078903;28;20119;-71
2023/04/15 12:25:50;;;;;;;9.98;5.70;;;;;;;;;;5078080;28;20024;-70
2023/04/15 12:28:16;;;;;;;10.13;6.25;;;;;;;;;;5078870;28;20056;-71
2023/04/15 12:30:50;;;;;;;3.80;3.10;;;;;;;;;;5078362;28;20038;-71
2023/04/15 12:33:15;;;;;;;3.65;2.50;;;;;;;;;;5079187;28;20027;-71
2023/04/15 12:35:41;;;;;;;7.15;2.40;;;;;;;;;;5072598;28;20036;-70
2023/04/15 12:38:07;;;;;;;8.40;4.25;;;;;;;;;;5066019;28;20051;-71
2023/04/15 12:40:33;;;;;;;4.47;2.70;;;;;;;;;;5066035;28;20039;-71
2023/04/15 12:42:58;;;;;;;3.25;1.67;;;;;;;;;;5065339;28;20028;-71
2023/04/15 12:45:23;;;;;;;13.13;5.90;;;;;;;;;;5066828;28;20444;-73
2023/04/15 12:47:49;;;;;;;4.28;1.83;;;;;;;;;;5065458;28;20089;-73
2023/04/15 12:50:15;;;;;;;10.50;3.90;;;;;;;;;;5066601;28;20435;-71
2023/04/15 12:52:41;;;;;;;4.40;2.40;;;;;;;;;;5067675;28;20137;-73
2023/04/15 12:55:06;;;;;;;4.65;3.78;;;;;;;;;;5066616;28;20055;-71
2023/04/15 12:57:31;;;;;;;4.85;3.67;;;;;;;;;;5067336;28;20374;-73
2023/04/15 12:59:57;;;;;;;6.75;5.35;;;;;;;;;;5067259;28;20051;-72
2023/04/15 13:02:24;;;;;;;6.65;3.70;;;;;;;;;;5066653;28;20074;-74
2023/04/15 13:04:49;;;;;;;11.10;6.90;;;;;;;;;;5069540;28;20234;-71
2023/04/15 13:07:15;;;;;;;7.53;5.43;;;;;;;;;;5070412;28;20362;-71
2023/04/15 13:09:40;;;;;;;4.93;3.28;;;;;;;;;;5071565;28;20051;-70
2023/04/15 13:12:05;;;;;;;7.72;2.60;;;;;;;;;;5070509;28;20027;-70
2023/04/15 13:14:31;;;;;;;7.57;3.72;;;;;;;;;;5070390;28;20031;-72
2023/04/15 13:16:56;;;;;;;4.38;2.17;;;;;;;;;;5069167;28;20032;-72
2023/04/15 13:19:22;;;;;;;12.18;8.18;;;;;;;;;;5070004;28;20032;-70
2023/04/15 13:21:47;;;;;;;17.70;6.78;;;;;;;;;;5071521;28;20099;-73
2023/04/15 13:24:13;;;;;;;5.07;1.80;;;;;;;;;;5081626;28;20059;-73
2023/04/15 13:26:38;;;;;;;6.30;1.90;;;;;;;;;;5082408;28;20034;-70
2023/04/15 13:29:03;;;;;;;17.73;11.23;;;;;;;;;;5077153;28;20435;-70
2023/04/15 13:31:29;;;;;;;7.95;6.45;;;;;;;;;;5077602;28;20035;-71
2023/04/15 13:33:55;;;;;;;2.38;1.23;;;;;;;;;;5082925;28;20466;-70
2023/04/15 13:36:21;;;;;;;2.78;1.65;;;;;;;;;;5082435;28;20110;-71
2023/04/15 13:38:46;;;;;;;16.30;11.65;;;;;;;;;;5083458;28;20469;-71
2023/04/15 13:41:12;;;;;;;12.77;6.32;;;;;;;;;;5076363;28;20032;-71
2023/04/15 13:43:37;;;;;;;6.35;5.60;;;;;;;;;;5077716;28;20503;-73
2023/04/15 13:46:02;;;;;;;10.68;6.97;;;;;;;;;;5081722;28;20189;-71
2023/04/15 13:48:28;;;;;;;22.40;14.43;;;;;;;;;;5082809;28;20076;-70
2023/04/15 13:50:53;;;;;;;15.48;8.43;;;;;;;;;;5081902;28;20055;-71
2023/04/15 13:53:19;;;;;;;8.80;6.80;;;;;;;;;;5081946;28;20078;-70
2023/04/15 13:55:44;;;;;;;5.35;3.35;;;;;;;;;;5072023;28;20028;-70
2023/04/15 13:58:10;;;;;;;17.58;13.63;;;;;;;;;;5070411;28;20031;-71
2023/04/15 14:00:35;;;;;;;5.63;3.63;;;;;;;;;;5071162;28;20103;-70
2023/04/15 14:03:01;;;;;;;4.80;1.77;;;;;;;;;;5070274;28;20595;-71
2023/04/15 14:05:26;;;;;;;4.97;2.72;;;;;;;;;;5068061;28;20048;-71
2023/04/15 14:07:51;;;;;;;2.67;1.80;;;;;;;;;;5069197;28;20110;-73
2023/04/15 14:10:17;;;;;;;3.90;2.63;;;;;;;;;;5071478;28;20024;-70
2023/04/15 14:12:42;;;;;;;7.28;2.20;;;;;;;;;;5070801;28;20028;-71
2023/04/15 14:15:08;;;;;;;7.05;1.73;;;;;;;;;;5067668;28;20024;-71
2023/04/15 14:17:33;;;;;;;6.85;2.05;;;;;;;;;;5073643;28;20053;-70
2023/04/15 14:19:58;;;;;;;10.35;2.17;;;;;;;;;;5076617;28;20032;-71
2023/04/15 14:22:24;;;;;;;10.25;6.10;;;;;;;;;;5074630;28;20103;-72
2023/04/15 14:24:51;;;;;;;6.80;4.57;;;;;;;;;;5071466;28;20106;-72
2023/04/15 14:27:17;;;;;;;14.55;10.70;;;;;;;;;;5076827;28;20031;-71
2023/04/15 14:29:42;;;;;;;7.80;4.13;;;;;;;;;;5081759;28;20398;-73
2023/04/15 14:32:08;;;;;;;17.77;12.32;;;;;;;;;;5069736;28;20374;-70
2023/04/15 14:34:33;;;;;;;8.05;2.55;;;;;;;;;;5072371;28;20032;-71